American Islander — WDC5089 — position and weather

sailwx.info

Track history (hours):
 
Tides and Currents Weather Stations Pressure Air Temp Water Temp Dewpoint Dewpoint Depression Visibility Wind Speed Wind Dir Waves Ship Positions

American Islander

Owner: AMERICAN WORKBOATS, INC., HONOLULU, HI. More information available from US FCC via Universal Licensing System and Coast Guard Vessel Documentation Center.

Last reported at 2017-Jan-21 07:33 UTC. Time now 2017-Jan-21 08:33 UTC.
Position N 32°42' W 117°14'.

Length 31 m; draft 3 m.

Type: Ship. MMSI: 367035570.

Date/timePositionNaut miles runAvg speedWind from/ knotsBaromVisibWave heightAir tempDewpointWater temp
2017-Jan-21 07:33N 32°42' W 117°14'0 0.1
2017-Jan-21 06:33N 32°42' W 117°14'5 5.1
2017-Jan-21 05:33N 32°37' W 117°15'8 7.6
2017-Jan-21 04:34N 32°35' W 117°23'8 7.7
2017-Jan-21 03:33N 32°32' W 117°32'16 7.8
2017-Jan-21 01:33N 32°25' W 117°49'  
2017-Jan-16 13:33N 32°26' W 117°50'8 8.1
2017-Jan-16 12:33N 32°29' W 117°41'8 8.3
2017-Jan-16 11:33N 32°32' W 117°32'9 8.5
2017-Jan-16 10:33N 32°35' W 117°22'8 8.1
2017-Jan-16 09:33N 32°39' W 117°14'4 3.6
2017-Jan-16 08:33N 32°42' W 117°14'0 0.0
2017-Jan-16 07:33N 32°42' W 117°14'0 0.0
2017-Jan-16 06:33N 32°42' W 117°14'0 0.0
2017-Jan-16 05:33N 32°42' W 117°14'0 0.0
2017-Jan-16 04:33N 32°42' W 117°14'0 0.0
2017-Jan-16 03:33N 32°42' W 117°14'0 0.0
2017-Jan-16 02:33N 32°42' W 117°14'1 0.5
2017-Jan-16 01:33N 32°42' W 117°14'6 5.8
2017-Jan-16 00:33N 32°39' W 117°20'0 0.4
2017-Jan-15 23:33N 32°39' W 117°20'1 1.2
2017-Jan-15 22:33N 32°40' W 117°18'4 3.9
2017-Jan-15 21:33N 32°38' W 117°14'4 4.0
2017-Jan-15 20:33N 32°42' W 117°14'0 0.0
2017-Jan-15 19:33N 32°42' W 117°14'0 0.0
2017-Jan-15 18:33N 32°42' W 117°14'0 0.0
2017-Jan-15 17:33N 32°42' W 117°14'0 0.0
2017-Jan-15 16:33N 32°42' W 117°14'0 0.0
2017-Jan-15 15:33N 32°42' W 117°14'0 0.0
2017-Jan-15 14:33N 32°42' W 117°14'0 0.0
2017-Jan-15 13:33N 32°42' W 117°14'0 0.0
2017-Jan-15 12:33N 32°42' W 117°14'0 0.0
2017-Jan-15 11:33N 32°42' W 117°14'0 0.0
2017-Jan-15 10:33N 32°42' W 117°14'0 0.0
2017-Jan-15 09:33N 32°42' W 117°14'0 0.0
2017-Jan-15 08:33N 32°42' W 117°14'0 0.0
2017-Jan-15 07:33N 32°42' W 117°14'0 0.0
2017-Jan-15 06:33N 32°42' W 117°14'0 0.0
2017-Jan-15 05:33N 32°42' W 117°14'0 0.0
2017-Jan-15 04:33N 32°42' W 117°14'0 0.0
2017-Jan-15 03:33N 32°42' W 117°14'0 0.0
2017-Jan-15 02:33N 32°42' W 117°14'0 0.0
2017-Jan-15 01:33N 32°42' W 117°14'0 0.0
2017-Jan-15 00:33N 32°42' W 117°14'0 0.0
2017-Jan-14 23:33N 32°42' W 117°14'0 0.0
2017-Jan-14 22:33N 32°42' W 117°14'0 0.0
2017-Jan-14 21:33N 32°42' W 117°14'0 0.0
2017-Jan-14 20:33N 32°42' W 117°14'0 0.0
2017-Jan-14 19:33N 32°42' W 117°14'0 0.0
2017-Jan-14 18:33N 32°42' W 117°14'0 0.0
2017-Jan-14 17:33N 32°42' W 117°14'0 0.0
2017-Jan-14 16:33N 32°42' W 117°14'0 0.0
2017-Jan-14 15:33N 32°42' W 117°14'0 0.0
2017-Jan-14 14:33N 32°42' W 117°14'0 0.0
2017-Jan-14 13:33N 32°42' W 117°14'0 0.0
2017-Jan-14 12:33N 32°42' W 117°14'0 0.0
2017-Jan-14 11:33N 32°42' W 117°14'0 0.0
2017-Jan-14 10:33N 32°42' W 117°14'0 0.0
2017-Jan-14 09:33N 32°42' W 117°14'0 0.0
2017-Jan-14 08:33N 32°42' W 117°14'0 0.0
2017-Jan-14 07:33N 32°42' W 117°14'0 0.0
2017-Jan-14 06:33N 32°42' W 117°14'0 0.0
2017-Jan-14 05:33N 32°42' W 117°14'0 0.0
2017-Jan-14 04:31N 32°42' W 117°14'0 0.0
2017-Jan-14 03:33N 32°42' W 117°14'0 0.0
2017-Jan-13 23:33N 32°42' W 117°14'0 0.0
2017-Jan-13 22:33N 32°42' W 117°14'0 0.0
2017-Jan-13 21:33N 32°42' W 117°14'0 0.0
2017-Jan-13 20:33N 32°42' W 117°14'0 0.0
2017-Jan-13 19:33N 32°42' W 117°14'0 0.0
2017-Jan-13 18:33N 32°42' W 117°14'0 0.0
2017-Jan-13 17:33N 32°42' W 117°14'0 0.0
2017-Jan-13 16:32N 32°42' W 117°14'0 0.0
2017-Jan-13 15:19N 32°42' W 117°14'0 0.0
2017-Jan-13 14:30N 32°42' W 117°14'0 0.0
2017-Jan-13 13:32N 32°42' W 117°14'0 0.0
2017-Jan-13 12:33N 32°42' W 117°14'0 0.0
2017-Jan-13 11:33N 32°42' W 117°14'0 0.0
2017-Jan-13 10:33N 32°42' W 117°14'0 0.0
2017-Jan-13 09:32N 32°42' W 117°14'0 0.0
2017-Jan-13 08:33N 32°42' W 117°14'0 0.0
2017-Jan-13 07:33N 32°42' W 117°14'0 0.0
2017-Jan-13 06:32N 32°42' W 117°14'0 0.0
2017-Jan-13 05:25N 32°42' W 117°14'0 0.0
2017-Jan-13 04:31N 32°42' W 117°14'0 0.0
2017-Jan-13 03:32N 32°42' W 117°14'0 0.0
2017-Jan-13 02:33N 32°42' W 117°14'0 0.0
2017-Jan-13 01:33N 32°42' W 117°14'0 0.0
2017-Jan-13 00:33N 32°42' W 117°14'0 0.0
2017-Jan-12 22:20N 32°42' W 117°14'0 0.0
2017-Jan-12 21:33N 32°42' W 117°14'0 0.0
2017-Jan-12 20:33N 32°42' W 117°14'0 0.0
2017-Jan-12 19:33N 32°42' W 117°14'0 0.0
2017-Jan-12 18:33N 32°42' W 117°14'0 0.0
2017-Jan-12 17:32N 32°42' W 117°14'0 0.0
2017-Jan-12 16:33N 32°42' W 117°14'0 0.0
2017-Jan-12 15:33N 32°42' W 117°14'0 0.0
2017-Jan-12 14:33N 32°42' W 117°14'0 0.0
2017-Jan-12 13:33N 32°42' W 117°14'0 0.0
2017-Jan-12 12:33N 32°42' W 117°14'0 0.0
2017-Jan-12 11:33N 32°42' W 117°14'0 0.0
2017-Jan-12 10:33N 32°42' W 117°14'0 0.0
2017-Jan-12 09:33N 32°42' W 117°14'0 0.0
2017-Jan-12 08:33N 32°42' W 117°14'0 0.0
2017-Jan-12 07:33N 32°42' W 117°14'0 0.0
2017-Jan-12 06:33N 32°42' W 117°14'0 0.0
2017-Jan-12 05:33N 32°42' W 117°14'0 0.0
2017-Jan-12 04:33N 32°42' W 117°14'0 0.0
2017-Jan-12 03:33N 32°42' W 117°14'0 0.0
2017-Jan-12 02:33N 32°42' W 117°14'0 0.0
2017-Jan-12 01:33N 32°42' W 117°14'0 0.0
2017-Jan-12 00:33N 32°42' W 117°14'0 0.0
2017-Jan-11 23:33N 32°42' W 117°14'0 0.0
2017-Jan-11 22:33N 32°42' W 117°14'0 0.0
2017-Jan-11 21:33N 32°42' W 117°14'0 0.0
2017-Jan-11 20:33N 32°42' W 117°14'0 0.0
2017-Jan-11 19:33N 32°42' W 117°14'0 0.0
2017-Jan-11 18:33N 32°42' W 117°14'0 0.0
2017-Jan-11 17:33N 32°42' W 117°14'0 0.0
2017-Jan-11 16:33N 32°42' W 117°14'0 0.0
2017-Jan-11 15:33N 32°42' W 117°14'0 0.0
2017-Jan-11 14:33N 32°42' W 117°14'0 0.0
2017-Jan-11 13:33N 32°42' W 117°14'0 0.0
2017-Jan-11 12:33N 32°42' W 117°14'0 0.0
2017-Jan-11 11:33N 32°42' W 117°14'0 0.0
2017-Jan-11 10:33N 32°42' W 117°14'0 0.0
2017-Jan-11 09:33N 32°42' W 117°14'0 0.0
2017-Jan-11 08:33N 32°42' W 117°14'0 0.0
2017-Jan-11 07:33N 32°42' W 117°14'  
Track history (hours):
 
Tides and Currents Weather Stations Pressure Air Temp Water Temp Dewpoint Dewpoint Depression Visibility Wind Speed Wind Dir Waves Ship Positions

American Islander

Owner: AMERICAN WORKBOATS, INC., HONOLULU, HI. More information available from US FCC via Universal Licensing System and Coast Guard Vessel Documentation Center.

Last reported at 2017-Jan-21 07:33 UTC. Time now 2017-Jan-21 08:33 UTC.
Position N 32°42' W 117°14'.

Length 31 m; draft 3 m.

Type: Ship. MMSI: 367035570.

Date/timePositionNaut miles runAvg speedWind from/ knotsBaromVisibWave heightAir tempDewpointWater temp
2017-Jan-21 07:33N 32°42' W 117°14'0 0.1
2017-Jan-21 06:33N 32°42' W 117°14'5 5.1
2017-Jan-21 05:33N 32°37' W 117°15'8 7.6
2017-Jan-21 04:34N 32°35' W 117°23'8 7.7
2017-Jan-21 03:33N 32°32' W 117°32'16 7.8
2017-Jan-21 01:33N 32°25' W 117°49'  
2017-Jan-16 13:33N 32°26' W 117°50'8 8.1
2017-Jan-16 12:33N 32°29' W 117°41'8 8.3
2017-Jan-16 11:33N 32°32' W 117°32'9 8.5
2017-Jan-16 10:33N 32°35' W 117°22'8 8.1
2017-Jan-16 09:33N 32°39' W 117°14'4 3.6
2017-Jan-16 08:33N 32°42' W 117°14'0 0.0
2017-Jan-16 07:33N 32°42' W 117°14'0 0.0
2017-Jan-16 06:33N 32°42' W 117°14'0 0.0
2017-Jan-16 05:33N 32°42' W 117°14'0 0.0
2017-Jan-16 04:33N 32°42' W 117°14'0 0.0
2017-Jan-16 03:33N 32°42' W 117°14'0 0.0
2017-Jan-16 02:33N 32°42' W 117°14'1 0.5
2017-Jan-16 01:33N 32°42' W 117°14'6 5.8
2017-Jan-16 00:33N 32°39' W 117°20'0 0.4
2017-Jan-15 23:33N 32°39' W 117°20'1 1.2
2017-Jan-15 22:33N 32°40' W 117°18'4 3.9
2017-Jan-15 21:33N 32°38' W 117°14'4 4.0
2017-Jan-15 20:33N 32°42' W 117°14'0 0.0
2017-Jan-15 19:33N 32°42' W 117°14'0 0.0
2017-Jan-15 18:33N 32°42' W 117°14'0 0.0
2017-Jan-15 17:33N 32°42' W 117°14'0 0.0
2017-Jan-15 16:33N 32°42' W 117°14'0 0.0
2017-Jan-15 15:33N 32°42' W 117°14'0 0.0
2017-Jan-15 14:33N 32°42' W 117°14'0 0.0
2017-Jan-15 13:33N 32°42' W 117°14'0 0.0
2017-Jan-15 12:33N 32°42' W 117°14'0 0.0
2017-Jan-15 11:33N 32°42' W 117°14'0 0.0
2017-Jan-15 10:33N 32°42' W 117°14'0 0.0
2017-Jan-15 09:33N 32°42' W 117°14'0 0.0
2017-Jan-15 08:33N 32°42' W 117°14'0 0.0
2017-Jan-15 07:33N 32°42' W 117°14'0 0.0
2017-Jan-15 06:33N 32°42' W 117°14'0 0.0
2017-Jan-15 05:33N 32°42' W 117°14'0 0.0
2017-Jan-15 04:33N 32°42' W 117°14'0 0.0
2017-Jan-15 03:33N 32°42' W 117°14'0 0.0
2017-Jan-15 02:33N 32°42' W 117°14'0 0.0
2017-Jan-15 01:33N 32°42' W 117°14'0 0.0
2017-Jan-15 00:33N 32°42' W 117°14'0 0.0
2017-Jan-14 23:33N 32°42' W 117°14'0 0.0
2017-Jan-14 22:33N 32°42' W 117°14'0 0.0
2017-Jan-14 21:33N 32°42' W 117°14'0 0.0
2017-Jan-14 20:33N 32°42' W 117°14'0 0.0
2017-Jan-14 19:33N 32°42' W 117°14'0 0.0
2017-Jan-14 18:33N 32°42' W 117°14'0 0.0
2017-Jan-14 17:33N 32°42' W 117°14'0 0.0
2017-Jan-14 16:33N 32°42' W 117°14'0 0.0
2017-Jan-14 15:33N 32°42' W 117°14'0 0.0
2017-Jan-14 14:33N 32°42' W 117°14'0 0.0
2017-Jan-14 13:33N 32°42' W 117°14'0 0.0
2017-Jan-14 12:33N 32°42' W 117°14'0 0.0
2017-Jan-14 11:33N 32°42' W 117°14'0 0.0
2017-Jan-14 10:33N 32°42' W 117°14'0 0.0
2017-Jan-14 09:33N 32°42' W 117°14'0 0.0
2017-Jan-14 08:33N 32°42' W 117°14'0 0.0
2017-Jan-14 07:33N 32°42' W 117°14'0 0.0
2017-Jan-14 06:33N 32°42' W 117°14'0 0.0
2017-Jan-14 05:33N 32°42' W 117°14'0 0.0
2017-Jan-14 04:31N 32°42' W 117°14'0 0.0
2017-Jan-14 03:33N 32°42' W 117°14'0 0.0
2017-Jan-13 23:33N 32°42' W 117°14'0 0.0
2017-Jan-13 22:33N 32°42' W 117°14'0 0.0
2017-Jan-13 21:33N 32°42' W 117°14'0 0.0
2017-Jan-13 20:33N 32°42' W 117°14'0 0.0
2017-Jan-13 19:33N 32°42' W 117°14'0 0.0
2017-Jan-13 18:33N 32°42' W 117°14'0 0.0
2017-Jan-13 17:33N 32°42' W 117°14'0 0.0
2017-Jan-13 16:32N 32°42' W 117°14'0 0.0
2017-Jan-13 15:19N 32°42' W 117°14'0 0.0
2017-Jan-13 14:30N 32°42' W 117°14'0 0.0
2017-Jan-13 13:32N 32°42' W 117°14'0 0.0
2017-Jan-13 12:33N 32°42' W 117°14'0 0.0
2017-Jan-13 11:33N 32°42' W 117°14'0 0.0
2017-Jan-13 10:33N 32°42' W 117°14'0 0.0
2017-Jan-13 09:32N 32°42' W 117°14'0 0.0
2017-Jan-13 08:33N 32°42' W 117°14'0 0.0
2017-Jan-13 07:33N 32°42' W 117°14'0 0.0
2017-Jan-13 06:32N 32°42' W 117°14'0 0.0
2017-Jan-13 05:25N 32°42' W 117°14'0 0.0
2017-Jan-13 04:31N 32°42' W 117°14'0 0.0
2017-Jan-13 03:32N 32°42' W 117°14'0 0.0
2017-Jan-13 02:33N 32°42' W 117°14'0 0.0
2017-Jan-13 01:33N 32°42' W 117°14'0 0.0
2017-Jan-13 00:33N 32°42' W 117°14'0 0.0
2017-Jan-12 22:20N 32°42' W 117°14'0 0.0
2017-Jan-12 21:33N 32°42' W 117°14'0 0.0
2017-Jan-12 20:33N 32°42' W 117°14'0 0.0
2017-Jan-12 19:33N 32°42' W 117°14'0 0.0
2017-Jan-12 18:33N 32°42' W 117°14'0 0.0
2017-Jan-12 17:32N 32°42' W 117°14'0 0.0
2017-Jan-12 16:33N 32°42' W 117°14'0 0.0
2017-Jan-12 15:33N 32°42' W 117°14'0 0.0
2017-Jan-12 14:33N 32°42' W 117°14'0 0.0
2017-Jan-12 13:33N 32°42' W 117°14'0 0.0
2017-Jan-12 12:33N 32°42' W 117°14'0 0.0
2017-Jan-12 11:33N 32°42' W 117°14'0 0.0
2017-Jan-12 10:33N 32°42' W 117°14'0 0.0
2017-Jan-12 09:33N 32°42' W 117°14'0 0.0
2017-Jan-12 08:33N 32°42' W 117°14'0 0.0
2017-Jan-12 07:33N 32°42' W 117°14'0 0.0
2017-Jan-12 06:33N 32°42' W 117°14'0 0.0
2017-Jan-12 05:33N 32°42' W 117°14'0 0.0
2017-Jan-12 04:33N 32°42' W 117°14'0 0.0
2017-Jan-12 03:33N 32°42' W 117°14'0 0.0
2017-Jan-12 02:33N 32°42' W 117°14'0 0.0
2017-Jan-12 01:33N 32°42' W 117°14'0 0.0
2017-Jan-12 00:33N 32°42' W 117°14'0 0.0
2017-Jan-11 23:33N 32°42' W 117°14'0 0.0
2017-Jan-11 22:33N 32°42' W 117°14'0 0.0
2017-Jan-11 21:33N 32°42' W 117°14'0 0.0
2017-Jan-11 20:33N 32°42' W 117°14'0 0.0
2017-Jan-11 19:33N 32°42' W 117°14'0 0.0
2017-Jan-11 18:33N 32°42' W 117°14'0 0.0
2017-Jan-11 17:33N 32°42' W 117°14'0 0.0
2017-Jan-11 16:33N 32°42' W 117°14'0 0.0
2017-Jan-11 15:33N 32°42' W 117°14'0 0.0
2017-Jan-11 14:33N 32°42' W 117°14'0 0.0
2017-Jan-11 13:33N 32°42' W 117°14'0 0.0
2017-Jan-11 12:33N 32°42' W 117°14'0 0.0
2017-Jan-11 11:33N 32°42' W 117°14'0 0.0
2017-Jan-11 10:33N 32°42' W 117°14'0 0.0
2017-Jan-11 09:33N 32°42' W 117°14'0 0.0
2017-Jan-11 08:33N 32°42' W 117°14'0 0.0
2017-Jan-11 07:33N 32°42' W 117°14'  

Dump ship's entire track history